Time;durP1;ratioP1;P1;durP2;ratioP2;P2;SDS_P1;SDS_P2;PMS_P1;PMS_P2;Temp;Humidity;BMP_temperature;BMP_pressure;BME280_temperature;BME280_humidity;BME280_pressure;Samples;Min_cycle;Max_cycle;Signal;HPM_P1;HPM_P2
2022/01/31 00:00:40;;;;;;;40.22;5.40;;;1.90;99.90;;;0.31;100.00;100860.81;4859106;28;20446;-80
2022/01/31 00:03:07;;;;;;;38.22;5.57;;;1.90;99.90;;;0.36;100.00;100856.47;4882720;28;20032;-80
2022/01/31 00:05:33;;;;;;;37.20;5.63;;;2.00;99.90;;;0.38;100.00;100845.25;4867685;28;20026;-79
2022/01/31 00:08:06;;;;;;;45.97;6.07;;;2.00;99.90;;;0.40;100.00;100832.28;4899555;28;20026;-80
2022/01/31 00:10:32;;;;;;;38.75;4.90;;;2.00;99.90;;;0.44;100.00;100830.56;4875329;28;20042;-80
2022/01/31 00:13:09;;;;;;;34.85;5.28;;;2.10;99.90;;;0.49;100.00;100832.25;4885876;28;20070;-80
2022/01/31 00:15:42;;;;;;;36.40;5.22;;;2.10;99.90;;;0.55;100.00;100818.44;4883283;28;20618;-80
2022/01/31 00:18:13;;;;;;;51.70;5.82;;;2.10;99.90;;;0.58;100.00;100824.47;4903783;28;20499;-80
2022/01/31 00:20:40;;;;;;;44.03;5.38;;;2.10;99.90;;;0.59;100.00;100814.97;4872815;28;20026;-79
2022/01/31 00:23:06;;;;;;;49.15;6.35;;;2.20;99.90;;;0.61;100.00;100814.06;4873744;28;20039;-80
2022/01/31 00:25:31;;;;;;;44.92;5.75;;;2.20;99.90;;;0.64;100.00;100801.97;4885194;28;20026;-79
2022/01/31 00:27:57;;;;;;;41.58;6.53;;;2.20;99.90;;;0.66;100.00;100800.25;4922346;23;20180;-80
2022/01/31 00:30:32;;;;;;;58.05;6.63;;;2.20;99.90;;;0.70;99.92;100796.78;4897220;28;20042;-79
2022/01/31 00:32:58;;;;;;;39.10;5.70;;;2.20;99.90;;;0.68;99.92;100783.81;4890840;28;20042;-79
2022/01/31 00:35:26;;;;;;;40.15;5.45;;;2.30;99.90;;;0.69;100.00;100775.19;4888677;28;20049;-79
2022/01/31 00:38:00;;;;;;;35.47;5.53;;;2.30;99.90;;;0.71;99.89;100772.56;4911245;28;20032;-81
2022/01/31 00:40:29;;;;;;;42.83;5.55;;;2.20;99.90;;;0.72;99.94;100769.13;4881922;28;20871;-79
2022/01/31 00:43:04;;;;;;;42.45;6.03;;;2.30;99.90;;;0.71;99.89;100757.84;4859162;28;20519;-79
2022/01/31 00:45:32;;;;;;;44.47;5.55;;;2.30;99.90;;;0.74;99.78;100763.03;4872651;28;20533;-80
2022/01/31 00:48:04;;;;;;;34.75;5.28;;;2.30;99.90;;;0.76;99.72;100750.09;4896589;28;20030;-80
2022/01/31 00:50:39;;;;;;;39.55;5.70;;;2.30;99.90;;;0.78;99.93;100746.59;4878093;28;20564;-81
2022/01/31 00:53:08;;;;;;;38.10;5.23;;;2.30;99.90;;;0.79;99.23;100743.13;4928581;28;20023;-80
2022/01/31 00:55:34;;;;;;;35.42;5.00;;;2.30;99.90;;;0.79;99.48;100744.88;4883778;28;20039;-79
2022/01/31 00:58:00;;;;;;;47.72;5.00;;;2.40;99.90;;;0.79;99.36;100737.09;4910890;28;20035;-79
2022/01/31 01:00:26;;;;;;;36.95;4.82;;;2.40;99.90;;;0.80;99.75;100742.28;4892608;28;20041;-80
2022/01/31 01:02:52;;;;;;;45.05;5.13;;;2.40;99.90;;;0.77;99.30;100725.88;4874158;28;20134;-80
2022/01/31 01:05:18;;;;;;;36.03;5.18;;;2.30;99.90;;;0.77;99.68;100731.91;4886309;28;20154;-80
2022/01/31 01:07:52;;;;;;;54.97;5.07;;;2.30;99.90;;;0.79;99.63;100726.72;4921659;23;20058;-79
2022/01/31 01:10:19;;;;;;;34.10;4.63;;;2.30;99.90;;;0.79;99.53;100706.84;4890191;28;20034;-80
2022/01/31 01:12:52;;;;;;;42.30;5.18;;;2.40;99.90;;;0.79;99.95;100683.50;4863915;28;20043;-79
2022/01/31 01:15:18;;;;;;;33.63;4.88;;;2.40;99.90;;;0.83;99.60;100689.53;4903385;28;20023;-79
2022/01/31 01:17:45;;;;;;;26.83;4.85;;;2.40;99.90;;;0.84;99.58;100631.63;4879743;28;20032;-81
2022/01/31 01:20:12;;;;;;;36.70;4.38;;;2.40;99.90;;;0.87;99.63;100587.56;4904163;28;20512;-80
2022/01/31 01:22:38;;;;;;;42.47;5.57;;;2.40;99.90;;;0.90;99.42;100695.53;4891006;28;20555;-80
2022/01/31 01:25:11;;;;;;;47.83;5.50;;;2.50;99.90;;;0.95;99.35;100693.75;4877836;28;20026;-79
2022/01/31 01:27:37;;;;;;;44.72;5.85;;;2.50;99.90;;;0.98;99.23;100686.84;4887698;23;20028;-80
2022/01/31 01:30:05;;;;;;;43.15;5.57;;;2.50;99.90;;;1.02;99.59;100647.03;4892188;28;20035;-79
2022/01/31 01:32:47;;;;;;;39.70;4.95;;;2.60;99.90;;;1.05;99.25;100666.03;4897713;28;20023;-79
2022/01/31 01:35:17;;;;;;;46.22;5.95;;;2.60;99.90;;;1.04;99.13;100652.22;4872084;28;20384;-79
2022/01/31 01:37:43;;;;;;;37.72;5.45;;;2.60;99.90;;;1.04;99.06;100652.22;4908554;28;20106;-80
2022/01/31 01:40:10;;;;;;;38.78;5.53;;;2.60;99.90;;;1.02;99.10;100635.81;4873720;28;20027;-80
2022/01/31 01:42:36;;;;;;;36.88;5.30;;;2.60;99.90;;;1.03;99.02;100629.75;4878098;28;20108;-80
2022/01/31 01:45:12;;;;;;;36.08;4.65;;;2.60;99.90;;;1.04;99.10;100618.53;4864549;28;20178;-80
2022/01/31 01:47:38;;;;;;;41.22;5.82;;;2.60;99.90;;;1.02;99.22;100613.34;4887551;28;20023;-80
2022/01/31 01:50:04;;;;;;;37.33;5.00;;;2.60;99.90;;;1.04;99.51;100602.97;4873053;28;20065;-80
2022/01/31 01:52:30;;;;;;;43.83;5.40;;;2.60;99.90;;;1.06;99.31;100587.38;4860410;28;20245;-80
2022/01/31 01:55:06;;;;;;;43.00;5.40;;;2.60;99.90;;;1.09;99.15;100592.53;4867025;28;20585;-80
2022/01/31 01:57:32;;;;;;;38.55;5.03;;;2.60;99.90;;;1.09;99.26;100580.44;4920443;28;20076;-79
2022/01/31 02:00:15;;;;;;;28.10;5.18;;;2.70;99.90;;;1.12;99.19;100567.41;4938221;28;20038;-80
2022/01/31 02:02:50;;;;;;;51.80;5.32;;;2.70;99.90;;;1.11;99.53;100570.03;4872430;28;20034;-79
2022/01/31 02:05:17;;;;;;;52.00;5.07;;;2.60;99.90;;;1.13;99.28;100569.16;4901903;28;20062;-80
2022/01/31 02:07:52;;;;;;;45.65;4.93;;;2.70;99.90;;;1.16;99.75;100563.06;4902430;28;20487;-80
2022/01/31 02:10:18;;;;;;;33.83;5.00;;;2.70;99.90;;;1.18;99.43;100564.75;4892924;28;20415;-80
2022/01/31 02:12:54;;;;;;;46.58;4.93;;;2.70;99.90;;;1.22;99.56;100550.03;4895604;28;20022;-79
2022/01/31 02:15:25;;;;;;;;;;;2.80;99.90;;;1.22;99.49;100552.63;4892162;28;20035;-80
2022/01/31 02:18:00;;;;;;;38.40;5.35;;;2.80;99.90;;;1.25;99.45;100557.78;4906411;28;19953;-79
2022/01/31 02:20:26;;;;;;;40.33;5.23;;;2.80;99.90;;;1.26;99.51;100549.13;4881281;28;20056;-80
2022/01/31 02:22:52;;;;;;;57.58;5.70;;;2.80;99.90;;;1.30;99.53;100550.81;4877324;28;23002;-80
2022/01/31 02:25:18;;;;;;;40.35;5.80;;;2.90;99.90;;;1.31;99.48;100549.94;4909774;28;20034;-80
2022/01/31 02:27:53;;;;;;;38.70;5.32;;;2.80;99.90;;;1.36;99.54;100536.91;4870251;28;20045;-79
2022/01/31 02:30:19;;;;;;;46.50;5.60;;;2.90;99.90;;;1.42;99.62;100535.09;4875772;28;20053;-80
2022/01/31 02:32:46;;;;;;;32.72;5.43;;;2.90;99.90;;;1.46;99.03;100529.88;4884530;28;20120;-80
2022/01/31 02:35:17;;;;;;;35.75;4.60;;;3.00;99.90;;;1.48;99.23;100516.00;4915041;28;20025;-80
2022/01/31 02:37:43;;;;;;;42.13;4.88;;;3.00;99.90;;;1.50;98.87;100523.78;4868193;28;20044;-80
2022/01/31 02:40:10;;;;;;;36.97;4.93;;;3.00;99.90;;;1.52;98.57;100514.22;4904028;28;20113;-80
2022/01/31 02:42:36;;;;;;;32.45;4.47;;;3.10;99.90;;;1.54;98.31;100468.38;4860468;28;20110;-80
2022/01/31 02:45:12;;;;;;;39.88;5.13;;;3.10;99.90;;;1.55;98.36;100499.47;4863141;28;20034;-80
2022/01/31 02:47:41;;;;;;;30.55;4.25;;;3.00;99.90;;;1.56;97.81;100489.97;4892382;28;20443;-79
2022/01/31 02:50:30;;;;;;;40.28;5.43;;;3.10;99.90;;;1.57;97.66;100494.25;4898785;28;20096;-80
2022/01/31 02:53:10;;;;;;;34.22;5.10;;;3.10;99.90;;;1.56;97.58;100489.97;4882193;28;20038;-80
2022/01/31 02:55:52;;;;;;;48.97;5.32;;;3.10;99.90;;;1.57;97.33;100483.88;4842926;28;20015;-79
2022/01/31 02:58:19;;;;;;;36.33;5.18;;;3.00;99.90;;;1.56;97.37;100484.78;4892196;28;20153;-80
2022/01/31 03:00:46;;;;;;;29.38;4.97;;;3.10;99.90;;;1.56;97.29;100480.44;4908978;28;20053;-80
2022/01/31 03:03:17;;;;;;;32.85;5.45;;;3.10;99.90;;;1.56;97.21;100472.66;4887928;28;20082;-80
2022/01/31 03:05:43;;;;;;;47.78;5.88;;;3.10;99.90;;;1.54;97.37;100470.97;4858411;28;20051;-81
2022/01/31 03:08:10;;;;;;;44.50;5.72;;;3.10;99.90;;;1.56;96.86;100466.59;4872921;28;20058;-81
2022/01/31 03:10:36;;;;;;;31.73;4.25;;;3.10;99.90;;;1.55;97.46;100473.50;4892520;28;20038;-80
2022/01/31 03:13:10;;;;;;;26.90;4.80;;;3.10;99.90;;;1.60;97.17;100455.31;4901320;28;20023;-81
2022/01/31 03:15:36;;;;;;;29.30;4.50;;;3.10;99.90;;;1.59;97.21;100448.38;4881794;28;20443;-80
2022/01/31 03:18:05;;;;;;;30.77;4.75;;;2.80;99.90;;;1.61;97.17;100442.28;4897545;28;20030;-81
2022/01/31 03:20:36;;;;;;;41.78;5.05;;;3.20;99.90;;;1.62;97.35;100444.03;4909236;28;20593;-80
2022/01/31 03:23:03;;;;;;;36.40;5.40;;;3.20;99.90;;;1.63;97.25;100434.50;4910106;28;20398;-80
2022/01/31 03:25:30;;;;;;;34.33;4.65;;;3.20;99.90;;;1.63;96.98;100435.34;4874820;28;20039;-80
2022/01/31 03:27:56;;;;;;;45.17;5.32;;;3.20;99.90;;;1.64;97.09;100428.41;4881754;28;20110;-81
2022/01/31 03:30:31;;;;;;;39.90;4.63;;;3.20;99.90;;;1.62;97.52;100428.44;4878087;28;20382;-81
2022/01/31 03:32:57;;;;;;;30.08;4.00;;;3.20;99.90;;;1.64;97.43;100420.63;4894629;28;20106;-80
2022/01/31 03:35:23;;;;;;;39.42;5.53;;;3.20;99.90;;;1.63;97.53;100418.91;4926839;28;20651;-80
2022/01/31 03:37:50;;;;;;;23.65;4.63;;;3.20;99.90;;;1.64;97.75;100416.31;4879494;28;20038;-80
2022/01/31 03:40:25;;;;;;;31.42;5.03;;;3.20;99.90;;;1.66;98.02;100402.44;4869835;28;20031;-81
2022/01/31 03:42:51;;;;;;;33.67;5.47;;;3.20;99.90;;;1.66;97.89;100402.44;4880148;28;20034;-80
2022/01/31 03:45:19;;;;;;;41.33;6.25;;;3.20;99.90;;;1.69;98.17;100392.88;4909129;28;20113;-81
2022/01/31 03:47:48;;;;;;;29.58;5.47;;;3.20;99.90;;;1.72;98.13;100378.97;4867199;28;20097;-81
2022/01/31 03:50:19;;;;;;;34.38;5.63;;;3.20;99.90;;;1.71;97.81;100378.13;4892274;28;20036;-80
2022/01/31 03:52:45;;;;;;;34.88;5.97;;;3.20;99.90;;;1.68;98.36;100370.38;4880250;28;20055;-81
2022/01/31 03:55:34;;;;;;;30.58;5.30;;;3.20;99.90;;;1.67;98.41;100363.50;4889395;28;20039;-81
2022/01/31 03:58:00;;;;;;;39.00;5.65;;;3.20;99.90;;;1.67;98.31;100370.44;4858207;28;20042;-81
2022/01/31 04:00:26;;;;;;;26.95;5.93;;;3.20;99.90;;;1.66;98.33;100364.34;4864082;28;20043;-81
2022/01/31 04:02:52;;;;;;;31.38;5.32;;;3.20;99.90;;;1.64;98.37;100355.72;4899840;28;20094;-80
2022/01/31 04:05:26;;;;;;;42.00;5.75;;;3.20;99.90;;;1.62;98.67;100355.78;4907129;28;20078;-81
2022/01/31 04:07:52;;;;;;;40.22;5.38;;;3.20;99.90;;;1.60;99.14;100346.31;4888003;28;20657;-81
2022/01/31 04:10:18;;;;;;;32.40;5.00;;;;;;;1.61;99.01;100332.44;4893834;28;20041;-81
2022/01/31 04:12:45;;;;;;;42.58;6.00;;;3.20;99.90;;;1.61;99.38;100335.88;4881038;28;20046;-81
2022/01/31 04:15:19;;;;;;;44.22;5.93;;;3.20;99.90;;;1.61;99.69;100327.25;4876078;28;20120;-82
2022/01/31 04:17:45;;;;;;;38.55;5.75;;;3.20;99.90;;;1.61;98.99;100333.28;4878656;28;20574;-80
2022/01/31 04:20:12;;;;;;;55.72;6.10;;;3.20;99.90;;;1.63;99.31;100320.28;4888002;28;20131;-82
2022/01/31 04:22:49;;;;;;;40.22;4.78;;;3.20;99.90;;;1.64;99.32;100319.41;4884523;28;20034;-80
2022/01/31 04:25:42;;;;;;;37.40;5.28;;;3.20;99.90;;;1.66;99.48;100309.00;4879262;28;20034;-81
2022/01/31 04:28:22;;;;;;;47.00;6.15;;;3.20;99.90;;;1.66;98.64;100302.06;4873931;28;20039;-82
2022/01/31 04:33:45;;;;;;;45.45;4.55;;;3.20;99.90;;;1.66;98.68;100291.69;4870656;28;20037;-82
2022/01/31 04:36:21;;;;;;;51.33;6.53;;;3.20;99.90;;;1.63;99.00;100282.22;4868532;28;20399;-81
2022/01/31 04:38:48;;;;;;;55.42;5.18;;;3.20;99.90;;;1.63;98.66;100286.56;4870656;28;20090;-80
2022/01/31 04:41:15;;;;;;;39.13;5.25;;;3.10;99.90;;;1.61;98.67;100272.75;4895865;28;20056;-80
2022/01/31 04:43:43;;;;;;;47.25;5.05;;;3.10;99.90;;;1.61;98.60;100267.56;4848199;28;20039;-81
2022/01/31 04:46:14;;;;;;;52.75;5.40;;;3.10;99.90;;;1.60;98.69;100261.53;4878201;28;20396;-80
2022/01/31 04:48:43;;;;;;;36.80;5.70;;;3.10;99.90;;;1.60;98.59;100265.84;4875803;28;20031;-79
2022/01/31 04:51:14;;;;;;;33.80;5.10;;;3.10;99.90;;;1.57;98.60;100260.69;4903320;28;20023;-81
2022/01/31 04:53:40;;;;;;;42.55;5.63;;;3.10;99.90;;;1.56;98.95;100257.25;4871544;28;20022;-80
2022/01/31 04:56:06;;;;;;;55.78;5.78;;;3.00;99.90;;;1.56;99.00;100264.19;4871979;28;20123;-79
2022/01/31 04:58:33;;;;;;;38.35;5.35;;;3.10;99.90;;;1.55;99.15;100250.34;4886500;28;20571;-79
2022/01/31 05:01:00;;;;;;;37.08;5.57;;;3.10;99.90;;;1.55;99.34;100154.31;4889547;28;20031;-79
2022/01/31 05:03:26;;;;;;;45.40;5.10;;;3.10;99.90;;;1.55;99.19;100247.75;4889702;28;20034;-81
2022/01/31 05:06:16;;;;;;;51.33;5.63;;;3.00;99.90;;;1.59;99.52;100249.41;4890893;28;20476;-80
2022/01/31 05:08:42;;;;;;;48.53;5.80;;;3.10;99.90;;;1.57;99.36;100243.38;4894120;28;20034;-81
2022/01/31 05:11:10;;;;;;;37.55;5.22;;;3.10;99.90;;;1.55;99.73;100245.16;4884103;28;20022;-80
2022/01/31 05:13:46;;;;;;;61.65;6.45;;;3.10;99.90;;;1.54;99.63;100237.41;4868845;28;20420;-80
2022/01/31 05:16:12;;;;;;;38.83;5.18;;;3.10;99.90;;;1.53;99.81;100235.69;4880287;28;20046;-81
2022/01/31 05:18:43;;;;;;;63.88;5.75;;;3.10;99.90;;;1.54;99.99;100232.22;4877616;28;20031;-79
2022/01/31 05:21:10;;;;;;;66.78;5.97;;;3.10;99.90;;;1.56;100.00;100230.47;4897227;28;20036;-80
2022/01/31 05:23:36;;;;;;;61.13;7.05;;;3.10;99.90;;;1.61;100.00;100228.63;4892111;28;20055;-80
2022/01/31 05:26:03;;;;;;;53.22;6.07;;;3.10;99.90;;;1.61;100.00;100219.09;4871734;28;20027;-80
2022/01/31 05:28:29;;;;;;;48.67;6.32;;;3.10;99.90;;;1.63;100.00;100204.34;4884777;28;20030;-79
2022/01/31 05:31:00;;;;;;;55.08;6.22;;;3.20;99.90;;;1.66;100.00;100203.44;4881302;28;20113;-80
2022/01/31 05:33:26;;;;;;;48.05;7.15;;;3.20;99.90;;;1.67;100.00;100189.59;4950520;28;20023;-79
2022/01/31 05:35:52;;;;;;;41.22;6.72;;;3.20;99.90;;;1.69;100.00;100180.03;4889057;28;20027;-80
2022/01/31 05:38:19;;;;;;;37.38;5.82;;;3.20;99.90;;;1.70;100.00;100173.94;4877523;28;20065;-79
2022/01/31 05:40:45;;;;;;;48.30;6.75;;;3.20;99.90;;;1.68;100.00;100173.13;4864476;28;20046;-81
2022/01/31 05:43:19;;;;;;;35.35;5.65;;;3.20;99.90;;;1.71;100.00;100170.47;4908191;28;20042;-80
2022/01/31 05:45:46;;;;;;;47.45;6.85;;;3.20;99.90;;;1.67;100.00;100155.00;4902465;28;20035;-79
2022/01/31 05:48:13;;;;;;;35.13;5.97;;;3.20;99.90;;;1.67;100.00;100150.66;4885245;28;20157;-79
2022/01/31 05:50:47;;;;;;;52.38;6.72;;;3.20;99.90;;;1.66;100.00;100140.31;4857275;28;20070;-80
2022/01/31 05:53:13;;;;;;;47.72;6.05;;;3.20;99.90;;;1.62;100.00;100139.50;4877272;28;20160;-80
2022/01/31 05:55:40;;;;;;;55.05;6.93;;;3.20;99.90;;;1.63;100.00;100138.63;4881251;28;20097;-80
2022/01/31 05:58:12;;;;;;;44.15;6.32;;;3.10;99.90;;;1.62;100.00;100134.31;4916041;28;20031;-79
2022/01/31 06:00:38;;;;;;;43.15;7.25;;;3.10;99.90;;;1.60;100.00;100131.75;4884452;28;20655;-80
2022/01/31 06:03:06;;;;;;;44.42;6.53;;;3.10;99.90;;;1.59;100.00;100131.78;4882228;28;20041;-80
2022/01/31 06:05:32;;;;;;;33.00;6.18;;;3.10;99.90;;;1.58;100.00;100124.91;4861068;28;20126;-80
2022/01/31 06:07:58;;;;;;;47.78;6.38;;;3.10;99.90;;;1.55;100.00;100122.34;4874067;28;20034;-80
2022/01/31 06:10:29;;;;;;;38.13;6.43;;;3.10;99.90;;;1.55;100.00;100124.94;4877915;28;20026;-81
2022/01/31 06:12:56;;;;;;;43.03;6.85;;;3.00;99.90;;;1.53;100.00;100121.50;4851290;28;20090;-80
2022/01/31 06:15:23;;;;;;;36.58;6.00;;;3.10;99.90;;;1.54;100.00;100123.25;4872228;28;20034;-80
2022/01/31 06:17:49;;;;;;;45.78;5.97;;;3.00;99.90;;;1.50;100.00;100113.81;4877884;28;20038;-80
2022/01/31 06:20:24;;;;;;;40.85;5.93;;;3.00;99.90;;;1.47;100.00;100106.06;4901047;28;20442;-79
2022/01/31 06:22:52;;;;;;;35.78;6.30;;;3.00;99.90;;;1.42;100.00;100101.81;4886962;28;20065;-80
2022/01/31 06:25:25;;;;;;;49.22;6.07;;;3.00;99.90;;;1.42;100.00;100112.19;4871060;28;20107;-79
2022/01/31 06:27:52;;;;;;;52.05;6.72;;;2.90;99.90;;;1.37;100.00;100102.81;4858307;28;20050;-79
2022/01/31 06:30:18;;;;;;;37.25;6.47;;;2.90;99.90;;;1.30;100.00;100098.63;4867804;28;20113;-80
2022/01/31 06:32:45;;;;;;;41.00;7.05;;;2.80;99.90;;;1.26;100.00;100091.78;4879717;28;20064;-80
2022/01/31 06:35:20;;;;;;;44.28;6.50;;;2.80;99.90;;;1.22;100.00;100081.44;4849585;28;20023;-80
2022/01/31 06:37:46;;;;;;;56.90;6.53;;;2.40;99.90;;;1.15;100.00;100074.66;4861526;28;20035;-79
2022/01/31 06:40:12;;;;;;;51.47;6.78;;;2.70;99.90;;;1.13;100.00;100065.22;4869140;28;20014;-79
2022/01/31 06:42:38;;;;;;;41.58;7.03;;;2.60;99.90;;;1.06;100.00;100080.03;4893174;28;20521;-80
2022/01/31 06:45:08;;;;;;;31.60;6.50;;;2.70;99.90;;;0.99;100.00;100074.09;4872072;28;20041;-80
2022/01/31 06:47:34;;;;;;;59.20;6.55;;;2.60;99.90;;;0.94;100.00;100073.31;4891368;28;20443;-80
2022/01/31 06:50:04;;;;;;;37.20;6.82;;;2.60;99.90;;;0.91;100.00;100068.19;4933835;28;20237;-80
2022/01/31 06:52:36;;;;;;;44.13;7.03;;;2.60;99.90;;;0.92;100.00;100062.09;4865203;28;20233;-80
2022/01/31 06:55:06;;;;;;;51.65;6.57;;;2.50;99.90;;;0.97;100.00;100064.63;4857241;28;20113;-80
2022/01/31 06:57:42;;;;;;;22.95;5.63;;;2.50;99.90;;;1.01;100.00;100058.50;4888050;28;20057;-79
2022/01/31 07:00:09;;;;;;;35.65;5.70;;;2.50;99.90;;;0.95;100.00;100058.59;4886473;28;20057;-79
2022/01/31 07:02:36;;;;;;;30.95;5.63;;;2.50;99.90;;;0.91;100.00;100050.03;4869580;28;20079;-79
2022/01/31 07:05:02;;;;;;;44.97;6.38;;;2.50;99.90;;;0.94;100.00;100054.31;4892393;28;20050;-80
2022/01/31 07:07:33;;;;;;;33.25;6.82;;;2.50;99.90;;;0.92;100.00;100043.97;4899000;28;20030;-80
2022/01/31 07:10:02;;;;;;;36.13;7.28;;;2.50;99.90;;;0.88;100.00;100044.03;4875461;28;20031;-80
2022/01/31 07:12:32;;;;;;;26.90;5.65;;;2.50;99.90;;;0.90;100.00;100025.00;4881103;28;20054;-80
2022/01/31 07:15:00;;;;;;;33.35;6.25;;;2.50;99.90;;;0.85;100.00;100026.81;4913274;28;20466;-80
2022/01/31 07:17:26;;;;;;;44.28;6.13;;;2.40;99.90;;;0.84;100.00;100032.03;4910685;28;20452;-79
2022/01/31 07:19:54;;;;;;;42.80;5.20;;;2.40;99.90;;;0.85;100.00;100021.63;4858160;28;20050;-79
2022/01/31 07:22:26;;;;;;;36.17;6.28;;;2.50;99.90;;;0.93;100.00;100021.47;4868850;28;20038;-79
2022/01/31 07:25:22;;;;;;;44.75;5.28;;;2.50;99.90;;;0.94;100.00;100021.47;4869454;28;20419;-79
2022/01/31 07:27:52;;;;;;;28.63;3.88;;;2.50;99.90;;;0.96;100.00;100027.47;4877214;28;20057;-81
2022/01/31 07:30:18;;;;;;;37.07;6.03;;;2.50;99.90;;;0.98;100.00;100028.31;4870487;28;20041;-80
2022/01/31 07:32:44;;;;;;;22.40;3.80;;;2.50;99.90;;;1.05;100.00;100038.56;4889643;28;20039;-79
2022/01/31 07:35:10;;;;;;;32.72;4.40;;;2.60;99.90;;;1.10;100.00;100040.19;4906815;28;20113;-80
2022/01/31 07:37:40;;;;;;;17.40;3.72;;;2.60;99.90;;;1.13;100.00;100040.13;4859996;28;20083;-80
2022/01/31 07:40:07;;;;;;;31.75;4.57;;;2.60;99.90;;;1.20;100.00;100040.88;4857075;28;21106;-79
2022/01/31 07:42:33;;;;;;;28.48;4.35;;;2.70;99.90;;;1.19;100.00;100029.66;4879843;28;20488;-80
2022/01/31 07:44:59;;;;;;;23.40;4.55;;;2.70;99.90;;;1.21;100.00;100030.47;4857543;28;20053;-78
2022/01/31 07:47:25;;;;;;;23.25;4.53;;;2.70;99.90;;;1.28;100.00;100033.78;4860607;28;20023;-80
2022/01/31 07:50:02;;;;;;;19.35;4.63;;;2.80;99.90;;;1.34;100.00;100033.69;4862978;28;20028;-81
2022/01/31 07:52:29;;;;;;;68.03;6.68;;;2.80;99.90;;;1.38;100.00;100030.16;4875712;28;20026;-81
2022/01/31 07:55:02;;;;;;;30.67;5.68;;;2.90;99.90;;;1.47;100.00;100043.78;4860297;28;20023;-80
2022/01/31 07:57:29;;;;;;;30.50;4.82;;;2.90;99.90;;;1.54;100.00;100029.81;4906527;28;20041;-81
2022/01/31 07:59:55;;;;;;;23.60;4.13;;;3.00;99.90;;;1.59;100.00;100035.75;4897859;28;20521;-78
2022/01/31 08:02:21;;;;;;;23.42;4.85;;;3.00;99.90;;;1.65;100.00;100033.03;4893049;28;20103;-80
2022/01/31 08:04:54;;;;;;;24.23;4.65;;;3.10;99.90;;;1.70;100.00;100028.59;4856738;28;20046;-80
2022/01/31 08:07:22;;;;;;;32.45;4.70;;;3.10;99.90;;;1.74;100.00;100030.25;4852460;28;20551;-79
2022/01/31 08:09:49;;;;;;;30.70;5.90;;;3.20;99.90;;;1.79;100.00;100025.81;4878610;28;20038;-80
2022/01/31 08:12:17;;;;;;;67.45;4.85;;;3.20;99.90;;;1.82;100.00;100025.75;4885169;28;20042;-80
2022/01/31 08:14:47;;;;;;;31.70;5.50;;;3.20;99.90;;;1.87;100.00;100032.59;4879708;28;20038;-80
2022/01/31 08:17:13;;;;;;;18.05;3.55;;;3.20;99.90;;;1.89;100.00;100026.47;4870029;28;20039;-81
2022/01/31 08:19:39;;;;;;;26.27;4.80;;;3.30;99.90;;;1.92;100.00;100031.56;4894613;28;20042;-79
2022/01/31 08:22:06;;;;;;;48.78;5.20;;;3.30;99.90;;;1.94;100.00;100031.56;4863174;28;20034;-80
2022/01/31 08:24:37;;;;;;;39.13;4.22;;;3.40;99.90;;;1.93;100.00;100028.09;4876064;28;20403;-80
2022/01/31 08:27:03;;;;;;;15.32;2.90;;;3.30;99.90;;;1.93;100.00;100022.91;4871726;28;20475;-80
2022/01/31 08:29:33;;;;;;;13.30;3.20;;;3.40;99.90;;;1.94;100.00;100018.56;4872915;28;20054;-80
2022/01/31 08:32:09;;;;;;;17.20;3.40;;;3.40;99.90;;;1.93;100.00;100022.91;4909988;28;20401;-80
2022/01/31 08:37:29;;;;;;;29.65;4.40;;;3.40;99.90;;;1.98;100.00;100012.41;4917065;28;19972;-80
2022/01/31 08:39:56;;;;;;;20.88;5.07;;;3.40;99.90;;;2.02;100.00;100011.47;4880908;28;20033;-80
2022/01/31 08:42:30;;;;;;;21.23;4.97;;;3.50;99.90;;;2.04;100.00;100013.13;4863972;28;20038;-80
2022/01/31 08:44:56;;;;;;;22.73;5.38;;;3.40;99.90;;;2.05;100.00;100001.00;4881956;28;20053;-80
2022/01/31 08:47:22;;;;;;;22.13;4.85;;;3.50;99.90;;;2.13;100.00;100004.28;4867529;28;20504;-80
2022/01/31 08:49:49;;;;;;;31.00;6.30;;;3.50;99.90;;;2.22;100.00;99998.00;4910879;28;20027;-80
2022/01/31 08:52:20;;;;;;;30.05;5.35;;;3.60;99.90;;;2.26;100.00;100004.84;4893391;28;20076;-80
2022/01/31 08:54:46;;;;;;;34.97;6.07;;;3.70;99.90;;;2.33;100.00;100006.38;4907648;28;20066;-80
2022/01/31 08:57:13;;;;;;;34.53;4.82;;;3.70;99.90;;;2.38;99.99;100007.16;4908247;28;20117;-80
2022/01/31 08:59:44;;;;;;;31.35;4.80;;;3.80;99.90;;;2.46;99.67;100006.94;4878716;28;20035;-80
2022/01/31 09:02:25;;;;;;;35.50;6.05;;;3.80;99.90;;;2.55;99.34;100008.47;4877864;28;20030;-79
2022/01/31 09:04:54;;;;;;;28.92;6.13;;;3.90;99.90;;;2.61;98.92;100006.59;4899763;28;20041;-79
2022/01/31 09:07:24;;;;;;;37.95;6.05;;;4.00;99.90;;;2.67;98.32;100009.00;4899537;28;20027;-80
2022/01/31 09:09:56;;;;;;;31.23;5.40;;;4.00;99.90;;;2.74;98.37;100003.66;4886967;28;20031;-80
2022/01/31 09:12:27;;;;;;;24.73;4.60;;;4.10;99.90;;;2.78;97.63;100006.13;4885939;28;20626;-79
2022/01/31 09:14:54;;;;;;;29.17;5.60;;;4.10;99.90;;;2.83;97.61;100012.06;4863505;28;20042;-79
2022/01/31 09:17:26;;;;;;;31.30;5.65;;;4.20;99.90;;;2.85;97.22;100009.41;4878752;28;20533;-80
2022/01/31 09:19:52;;;;;;;32.08;5.90;;;4.20;99.90;;;2.93;96.94;100017.88;4877432;28;20172;-80
2022/01/31 09:22:19;;;;;;;36.75;6.05;;;4.30;99.90;;;3.01;97.09;100015.09;4893943;28;20178;-80
2022/01/31 09:24:45;;;;;;;30.15;5.55;;;4.40;99.90;;;3.13;96.93;100016.47;4902534;28;20033;-80
2022/01/31 09:27:16;;;;;;;43.47;5.85;;;4.40;99.90;;;3.20;97.03;100018.88;4878059;28;20107;-80
2022/01/31 09:29:42;;;;;;;28.35;5.22;;;4.50;99.90;;;3.29;97.01;100020.38;4863154;28;20132;-80
2022/01/31 09:32:10;;;;;;;34.25;5.75;;;4.60;99.90;;;3.38;96.47;100014.06;4882929;28;20043;-80
2022/01/31 09:34:36;;;;;;;46.47;5.70;;;4.70;99.90;;;3.44;96.14;100006.09;4884566;28;20033;-80
2022/01/31 09:37:12;;;;;;;19.33;4.93;;;4.70;99.90;;;3.53;95.42;100018.81;4891520;28;20114;-81
2022/01/31 09:39:38;;;;;;;23.40;5.05;;;4.80;99.90;;;3.61;95.20;100024.66;4866797;28;20080;-80
2022/01/31 09:42:10;;;;;;;19.45;4.50;;;4.90;99.90;;;3.67;94.68;100021.91;4877840;28;20902;-81
2022/01/31 09:47:33;;;;;;;24.23;4.75;;;4.90;99.90;;;3.60;94.41;100024.72;4880372;28;20391;-80
2022/01/31 09:50:00;;;;;;;26.95;4.47;;;4.90;99.90;;;3.53;94.26;100029.25;4886561;28;20030;-79
2022/01/31 09:52:25;;;;;;;30.50;5.40;;;4.80;99.90;;;3.44;94.23;100024.31;4871262;28;20036;-79
2022/01/31 09:54:51;;;;;;;24.23;4.72;;;4.80;99.90;;;3.48;94.59;100016.38;4883254;28;20030;-81
2022/01/31 09:57:18;;;;;;;18.27;3.92;;;4.80;99.90;;;3.47;94.71;100024.19;4858162;28;20375;-80
2022/01/31 09:59:53;;;;;;;21.52;3.70;;;4.80;99.90;;;3.42;94.64;100026.94;4876281;28;20439;-80
2022/01/31 10:02:19;;;;;;;27.15;4.53;;;4.70;99.90;;;3.42;94.30;100020.91;4883629;28;20049;-80
2022/01/31 10:04:55;;;;;;;19.77;5.00;;;;;;;3.40;94.89;100012.28;4870690;28;20126;-78
2022/01/31 10:07:21;;;;;;;16.73;4.05;;;4.70;99.90;;;3.32;94.64;100014.22;4907401;28;20053;-79
2022/01/31 10:09:49;;;;;;;18.23;4.43;;;4.70;99.90;;;3.28;95.19;100011.72;4895225;28;20101;-80
2022/01/31 10:16:24;;;;;;;30.67;4.60;;;4.70;99.90;;;3.35;95.17;100011.53;4887365;28;20029;-80
2022/01/31 10:18:02;;;;;;;31.02;5.07;;;4.70;99.90;;;3.32;95.07;100015.06;4919708;23;20527;-80
2022/01/31 10:20:38;;;;;;;29.73;4.70;;;4.70;99.90;;;3.38;94.81;100025.31;4906581;28;20039;-80
2022/01/31 10:23:20;;;;;;;32.75;4.90;;;4.80;99.90;;;3.46;94.65;100023.34;4898959;28;20048;-79
2022/01/31 10:25:46;;;;;;;17.65;3.97;;;4.80;99.90;;;3.60;94.86;100028.16;4915305;28;20034;-78
2022/01/31 10:28:20;;;;;;;16.25;4.30;;;4.90;99.90;;;3.71;94.35;100027.84;4884919;28;20035;-80
2022/01/31 10:30:50;;;;;;;19.92;3.83;;;5.00;99.90;;;3.75;93.94;100026.00;4906515;28;20031;-79
2022/01/31 10:33:18;;;;;;;19.20;3.75;;;5.00;99.90;;;3.82;93.30;100031.00;4866042;28;20085;-79
2022/01/31 10:35:49;;;;;;;26.13;4.45;;;5.10;99.90;;;3.92;93.13;100028.13;4875398;28;20518;-80
2022/01/31 10:38:29;;;;;;;20.13;4.65;;;5.20;99.90;;;3.95;92.71;100033.22;4894140;28;20037;-79